sensor_id;sensor_type;location;lat;lon;timestamp;P1;durP1;ratioP1;P2;durP2;ratioP2
47635;SDS011;33364;50.766;15.338;2023-03-31T00:00:57;6.80;;;3.30;;
47635;SDS011;33364;50.766;15.338;2023-03-31T00:03:25;8.90;;;4.20;;
47635;SDS011;33364;50.766;15.338;2023-03-31T00:05:54;8.30;;;4.10;;
47635;SDS011;33364;50.766;15.338;2023-03-31T00:08:23;10.57;;;5.50;;
47635;SDS011;33364;50.766;15.338;2023-03-31T00:10:48;16.70;;;7.88;;
47635;SDS011;33364;50.766;15.338;2023-03-31T00:13:14;19.15;;;9.30;;
47635;SDS011;33364;50.766;15.338;2023-03-31T00:15:40;15.43;;;6.72;;
47635;SDS011;33364;50.766;15.338;2023-03-31T00:18:06;6.43;;;3.88;;
47635;SDS011;33364;50.766;15.338;2023-03-31T00:20:32;11.05;;;5.22;;
47635;SDS011;33364;50.766;15.338;2023-03-31T00:22:58;7.63;;;4.55;;
47635;SDS011;33364;50.766;15.338;2023-03-31T00:25:26;8.10;;;4.47;;
47635;SDS011;33364;50.766;15.338;2023-03-31T00:27:52;10.25;;;5.78;;
47635;SDS011;33364;50.766;15.338;2023-03-31T00:30:18;10.00;;;5.65;;
47635;SDS011;33364;50.766;15.338;2023-03-31T00:32:45;8.73;;;5.07;;
47635;SDS011;33364;50.766;15.338;2023-03-31T00:35:11;9.23;;;5.05;;
47635;SDS011;33364;50.766;15.338;2023-03-31T00:37:37;7.65;;;4.38;;
47635;SDS011;33364;50.766;15.338;2023-03-31T00:40:03;7.63;;;4.35;;
47635;SDS011;33364;50.766;15.338;2023-03-31T00:42:40;5.55;;;3.85;;
47635;SDS011;33364;50.766;15.338;2023-03-31T00:47:42;7.28;;;4.20;;
47635;SDS011;33364;50.766;15.338;2023-03-31T00:50:15;7.85;;;4.30;;
47635;SDS011;33364;50.766;15.338;2023-03-31T00:52:54;7.82;;;4.35;;
47635;SDS011;33364;50.766;15.338;2023-03-31T00:55:27;5.95;;;3.92;;
47635;SDS011;33364;50.766;15.338;2023-03-31T00:57:59;11.02;;;4.57;;
47635;SDS011;33364;50.766;15.338;2023-03-31T01:00:26;17.15;;;5.40;;
47635;SDS011;33364;50.766;15.338;2023-03-31T01:02:54;8.50;;;4.38;;
47635;SDS011;33364;50.766;15.338;2023-03-31T01:05:24;10.15;;;5.32;;
47635;SDS011;33364;50.766;15.338;2023-03-31T01:07:53;10.43;;;5.28;;
47635;SDS011;33364;50.766;15.338;2023-03-31T01:10:20;10.85;;;5.20;;
47635;SDS011;33364;50.766;15.338;2023-03-31T01:12:48;8.13;;;4.70;;
47635;SDS011;33364;50.766;15.338;2023-03-31T01:15:17;8.40;;;5.15;;
47635;SDS011;33364;50.766;15.338;2023-03-31T01:17:43;13.23;;;6.78;;
47635;SDS011;33364;50.766;15.338;2023-03-31T01:20:18;12.18;;;5.85;;
47635;SDS011;33364;50.766;15.338;2023-03-31T01:45:52;11.70;;;6.22;;
47635;SDS011;33364;50.766;15.338;2023-03-31T01:51:13;12.15;;;5.45;;
47635;SDS011;33364;50.766;15.338;2023-03-31T01:56:51;12.10;;;6.05;;
47635;SDS011;33364;50.766;15.338;2023-03-31T01:59:23;8.90;;;4.68;;
47635;SDS011;33364;50.766;15.338;2023-03-31T02:01:58;10.55;;;5.75;;
47635;SDS011;33364;50.766;15.338;2023-03-31T02:04:32;12.30;;;5.82;;
47635;SDS011;33364;50.766;15.338;2023-03-31T02:07:08;9.65;;;5.15;;
47635;SDS011;33364;50.766;15.338;2023-03-31T02:09:43;10.80;;;6.00;;
47635;SDS011;33364;50.766;15.338;2023-03-31T02:12:13;9.20;;;5.70;;
47635;SDS011;33364;50.766;15.338;2023-03-31T02:14:43;10.73;;;6.22;;
47635;SDS011;33364;50.766;15.338;2023-03-31T02:17:14;14.00;;;6.60;;
47635;SDS011;33364;50.766;15.338;2023-03-31T02:19:43;11.30;;;6.78;;
47635;SDS011;33364;50.766;15.338;2023-03-31T02:22:13;9.60;;;5.55;;
47635;SDS011;33364;50.766;15.338;2023-03-31T02:24:40;12.68;;;6.97;;
47635;SDS011;33364;50.766;15.338;2023-03-31T02:27:14;13.00;;;6.63;;
47635;SDS011;33364;50.766;15.338;2023-03-31T02:29:46;11.55;;;6.88;;
47635;SDS011;33364;50.766;15.338;2023-03-31T02:32:23;12.98;;;7.00;;
47635;SDS011;33364;50.766;15.338;2023-03-31T02:34:50;13.05;;;7.43;;
47635;SDS011;33364;50.766;15.338;2023-03-31T02:37:16;11.50;;;6.90;;
47635;SDS011;33364;50.766;15.338;2023-03-31T02:39:43;11.60;;;6.03;;
47635;SDS011;33364;50.766;15.338;2023-03-31T02:42:12;12.15;;;6.35;;
47635;SDS011;33364;50.766;15.338;2023-03-31T02:44:38;10.55;;;6.22;;
47635;SDS011;33364;50.766;15.338;2023-03-31T02:47:05;9.27;;;5.70;;
47635;SDS011;33364;50.766;15.338;2023-03-31T02:49:34;10.85;;;6.82;;
47635;SDS011;33364;50.766;15.338;2023-03-31T03:00:43;13.38;;;7.95;;
47635;SDS011;33364;50.766;15.338;2023-03-31T03:11:31;8.70;;;6.00;;
47635;SDS011;33364;50.766;15.338;2023-03-31T03:14:27;9.73;;;6.35;;
47635;SDS011;33364;50.766;15.338;2023-03-31T03:17:20;11.32;;;6.40;;
47635;SDS011;33364;50.766;15.338;2023-03-31T03:20:08;11.68;;;6.82;;
47635;SDS011;33364;50.766;15.338;2023-03-31T03:22:35;11.27;;;6.32;;
47635;SDS011;33364;50.766;15.338;2023-03-31T03:25:03;13.68;;;7.18;;
47635;SDS011;33364;50.766;15.338;2023-03-31T03:27:30;12.05;;;5.80;;
47635;SDS011;33364;50.766;15.338;2023-03-31T03:29:57;15.13;;;8.38;;
47635;SDS011;33364;50.766;15.338;2023-03-31T03:32:23;11.90;;;8.10;;
47635;SDS011;33364;50.766;15.338;2023-03-31T03:34:49;9.63;;;5.70;;
47635;SDS011;33364;50.766;15.338;2023-03-31T03:37:14;9.10;;;5.40;;
47635;SDS011;33364;50.766;15.338;2023-03-31T03:39:40;12.43;;;6.57;;
47635;SDS011;33364;50.766;15.338;2023-03-31T03:42:06;16.10;;;7.75;;
47635;SDS011;33364;50.766;15.338;2023-03-31T03:44:31;13.27;;;8.27;;
47635;SDS011;33364;50.766;15.338;2023-03-31T03:46:57;12.00;;;8.38;;
47635;SDS011;33364;50.766;15.338;2023-03-31T03:49:23;9.35;;;6.45;;
47635;SDS011;33364;50.766;15.338;2023-03-31T03:51:48;12.68;;;8.05;;
47635;SDS011;33364;50.766;15.338;2023-03-31T03:54:15;10.32;;;7.72;;
47635;SDS011;33364;50.766;15.338;2023-03-31T03:56:41;12.93;;;7.53;;
47635;SDS011;33364;50.766;15.338;2023-03-31T03:59:07;10.88;;;6.90;;
47635;SDS011;33364;50.766;15.338;2023-03-31T04:01:32;10.00;;;6.43;;
47635;SDS011;33364;50.766;15.338;2023-03-31T04:03:58;8.52;;;6.25;;
47635;SDS011;33364;50.766;15.338;2023-03-31T04:06:24;8.02;;;6.68;;
47635;SDS011;33364;50.766;15.338;2023-03-31T04:08:50;11.00;;;6.15;;
47635;SDS011;33364;50.766;15.338;2023-03-31T04:11:16;8.77;;;7.10;;
47635;SDS011;33364;50.766;15.338;2023-03-31T04:13:44;18.27;;;9.88;;
47635;SDS011;33364;50.766;15.338;2023-03-31T04:16:11;13.38;;;8.80;;
47635;SDS011;33364;50.766;15.338;2023-03-31T04:18:37;19.35;;;10.50;;
47635;SDS011;33364;50.766;15.338;2023-03-31T04:21:10;24.10;;;10.60;;
47635;SDS011;33364;50.766;15.338;2023-03-31T04:23:40;18.52;;;9.98;;
47635;SDS011;33364;50.766;15.338;2023-03-31T04:26:13;12.63;;;8.40;;
47635;SDS011;33364;50.766;15.338;2023-03-31T04:28:40;10.68;;;6.63;;
47635;SDS011;33364;50.766;15.338;2023-03-31T04:31:11;9.65;;;7.35;;
47635;SDS011;33364;50.766;15.338;2023-03-31T04:33:41;18.05;;;9.50;;
47635;SDS011;33364;50.766;15.338;2023-03-31T04:36:10;10.80;;;6.78;;
47635;SDS011;33364;50.766;15.338;2023-03-31T04:38:42;6.13;;;5.47;;
47635;SDS011;33364;50.766;15.338;2023-03-31T04:41:13;10.15;;;6.45;;
47635;SDS011;33364;50.766;15.338;2023-03-31T04:43:39;9.45;;;5.78;;
47635;SDS011;33364;50.766;15.338;2023-03-31T04:46:05;7.00;;;4.25;;
47635;SDS011;33364;50.766;15.338;2023-03-31T04:48:31;11.40;;;6.40;;
47635;SDS011;33364;50.766;15.338;2023-03-31T04:50:57;8.85;;;5.60;;
47635;SDS011;33364;50.766;15.338;2023-03-31T04:53:23;10.18;;;6.13;;
47635;SDS011;33364;50.766;15.338;2023-03-31T04:55:49;13.15;;;8.77;;
47635;SDS011;33364;50.766;15.338;2023-03-31T04:58:15;15.57;;;9.30;;
47635;SDS011;33364;50.766;15.338;2023-03-31T05:00:40;13.00;;;8.52;;
47635;SDS011;33364;50.766;15.338;2023-03-31T05:03:06;21.48;;;10.95;;
47635;SDS011;33364;50.766;15.338;2023-03-31T05:05:32;20.85;;;14.40;;
47635;SDS011;33364;50.766;15.338;2023-03-31T05:07:58;21.10;;;13.60;;
47635;SDS011;33364;50.766;15.338;2023-03-31T05:10:24;20.23;;;13.60;;
47635;SDS011;33364;50.766;15.338;2023-03-31T05:12:50;17.40;;;10.38;;
47635;SDS011;33364;50.766;15.338;2023-03-31T05:15:15;20.05;;;13.38;;
47635;SDS011;33364;50.766;15.338;2023-03-31T05:17:41;19.33;;;12.55;;
47635;SDS011;33364;50.766;15.338;2023-03-31T05:20:07;18.17;;;11.48;;
47635;SDS011;33364;50.766;15.338;2023-03-31T05:22:35;16.90;;;11.75;;
47635;SDS011;33364;50.766;15.338;2023-03-31T05:25:02;27.50;;;17.42;;
47635;SDS011;33364;50.766;15.338;2023-03-31T05:27:29;23.60;;;16.98;;
47635;SDS011;33364;50.766;15.338;2023-03-31T05:29:55;26.65;;;18.05;;
47635;SDS011;33364;50.766;15.338;2023-03-31T05:32:21;33.08;;;19.88;;
47635;SDS011;33364;50.766;15.338;2023-03-31T05:34:46;31.48;;;20.15;;
47635;SDS011;33364;50.766;15.338;2023-03-31T05:37:14;32.50;;;21.05;;
47635;SDS011;33364;50.766;15.338;2023-03-31T05:39:40;27.05;;;17.38;;
47635;SDS011;33364;50.766;15.338;2023-03-31T05:42:05;41.38;;;26.35;;
47635;SDS011;33364;50.766;15.338;2023-03-31T05:44:31;44.15;;;28.08;;
47635;SDS011;33364;50.766;15.338;2023-03-31T05:46:57;50.58;;;31.63;;
47635;SDS011;33364;50.766;15.338;2023-03-31T05:49:23;52.28;;;32.15;;
47635;SDS011;33364;50.766;15.338;2023-03-31T05:51:49;43.17;;;28.27;;
47635;SDS011;33364;50.766;15.338;2023-03-31T05:54:15;46.53;;;29.80;;
47635;SDS011;33364;50.766;15.338;2023-03-31T05:56:40;33.55;;;20.85;;
47635;SDS011;33364;50.766;15.338;2023-03-31T05:59:06;42.13;;;24.85;;
47635;SDS011;33364;50.766;15.338;2023-03-31T06:01:32;29.77;;;18.73;;
47635;SDS011;33364;50.766;15.338;2023-03-31T06:03:57;35.47;;;22.17;;
47635;SDS011;33364;50.766;15.338;2023-03-31T06:06:23;36.05;;;21.13;;
47635;SDS011;33364;50.766;15.338;2023-03-31T06:08:49;37.85;;;20.50;;
47635;SDS011;33364;50.766;15.338;2023-03-31T06:11:19;29.80;;;17.98;;
47635;SDS011;33364;50.766;15.338;2023-03-31T06:13:46;35.15;;;20.80;;
47635;SDS011;33364;50.766;15.338;2023-03-31T06:16:14;48.25;;;25.90;;
47635;SDS011;33364;50.766;15.338;2023-03-31T06:18:41;62.20;;;29.40;;
47635;SDS011;33364;50.766;15.338;2023-03-31T06:21:09;49.90;;;26.67;;
47635;SDS011;33364;50.766;15.338;2023-03-31T06:23:40;56.50;;;28.90;;
47635;SDS011;33364;50.766;15.338;2023-03-31T06:26:13;33.03;;;18.48;;
47635;SDS011;33364;50.766;15.338;2023-03-31T06:28:39;45.33;;;24.33;;
47635;SDS011;33364;50.766;15.338;2023-03-31T06:31:07;29.25;;;17.70;;
47635;SDS011;33364;50.766;15.338;2023-03-31T06:33:37;74.35;;;41.60;;
47635;SDS011;33364;50.766;15.338;2023-03-31T06:36:03;55.47;;;32.35;;
47635;SDS011;33364;50.766;15.338;2023-03-31T06:38:31;70.22;;;39.58;;
47635;SDS011;33364;50.766;15.338;2023-03-31T06:40:57;67.22;;;36.30;;
47635;SDS011;33364;50.766;15.338;2023-03-31T06:43:23;44.30;;;26.63;;
47635;SDS011;33364;50.766;15.338;2023-03-31T06:45:49;48.28;;;28.30;;
47635;SDS011;33364;50.766;15.338;2023-03-31T06:48:17;53.88;;;33.40;;
47635;SDS011;33364;50.766;15.338;2023-03-31T06:50:43;37.67;;;22.35;;
47635;SDS011;33364;50.766;15.338;2023-03-31T06:53:08;36.17;;;20.75;;
47635;SDS011;33364;50.766;15.338;2023-03-31T06:55:35;35.03;;;21.38;;
47635;SDS011;33364;50.766;15.338;2023-03-31T06:58:01;30.55;;;19.95;;
47635;SDS011;33364;50.766;15.338;2023-03-31T07:00:27;48.83;;;29.48;;
47635;SDS011;33364;50.766;15.338;2023-03-31T07:02:53;74.50;;;41.03;;
47635;SDS011;33364;50.766;15.338;2023-03-31T07:05:19;97.93;;;51.38;;
47635;SDS011;33364;50.766;15.338;2023-03-31T07:07:55;71.32;;;33.50;;
47635;SDS011;33364;50.766;15.338;2023-03-31T07:10:22;73.47;;;40.40;;
47635;SDS011;33364;50.766;15.338;2023-03-31T07:12:49;61.15;;;35.80;;
47635;SDS011;33364;50.766;15.338;2023-03-31T07:15:15;61.83;;;32.20;;
47635;SDS011;33364;50.766;15.338;2023-03-31T07:17:41;89.80;;;39.63;;
47635;SDS011;33364;50.766;15.338;2023-03-31T07:20:07;107.40;;;44.55;;
47635;SDS011;33364;50.766;15.338;2023-03-31T07:22:37;77.63;;;35.13;;
47635;SDS011;33364;50.766;15.338;2023-03-31T07:25:06;75.00;;;33.60;;
47635;SDS011;33364;50.766;15.338;2023-03-31T07:27:32;55.70;;;25.40;;
47635;SDS011;33364;50.766;15.338;2023-03-31T07:29:59;55.85;;;28.27;;
47635;SDS011;33364;50.766;15.338;2023-03-31T07:32:24;58.78;;;28.80;;
47635;SDS011;33364;50.766;15.338;2023-03-31T07:34:50;49.10;;;28.88;;
47635;SDS011;33364;50.766;15.338;2023-03-31T07:37:16;48.97;;;27.73;;
47635;SDS011;33364;50.766;15.338;2023-03-31T07:39:42;40.08;;;22.45;;
47635;SDS011;33364;50.766;15.338;2023-03-31T07:42:07;63.25;;;35.72;;
47635;SDS011;33364;50.766;15.338;2023-03-31T07:44:33;52.35;;;27.50;;
47635;SDS011;33364;50.766;15.338;2023-03-31T07:47:00;52.97;;;26.88;;
47635;SDS011;33364;50.766;15.338;2023-03-31T07:49:29;45.63;;;25.00;;
47635;SDS011;33364;50.766;15.338;2023-03-31T07:51:55;45.83;;;26.02;;
47635;SDS011;33364;50.766;15.338;2023-03-31T07:54:21;39.60;;;23.63;;
47635;SDS011;33364;50.766;15.338;2023-03-31T07:56:47;41.78;;;21.80;;
47635;SDS011;33364;50.766;15.338;2023-03-31T07:59:13;38.35;;;24.85;;
47635;SDS011;33364;50.766;15.338;2023-03-31T08:01:38;52.60;;;28.52;;
47635;SDS011;33364;50.766;15.338;2023-03-31T08:04:05;78.00;;;40.30;;
47635;SDS011;33364;50.766;15.338;2023-03-31T08:06:30;59.22;;;28.58;;
47635;SDS011;33364;50.766;15.338;2023-03-31T08:08:56;49.17;;;27.05;;
47635;SDS011;33364;50.766;15.338;2023-03-31T08:11:22;53.67;;;32.70;;
47635;SDS011;33364;50.766;15.338;2023-03-31T08:13:49;48.05;;;25.40;;
47635;SDS011;33364;50.766;15.338;2023-03-31T08:16:15;42.83;;;23.35;;
47635;SDS011;33364;50.766;15.338;2023-03-31T08:18:41;39.40;;;21.60;;
47635;SDS011;33364;50.766;15.338;2023-03-31T08:21:06;38.35;;;21.65;;
47635;SDS011;33364;50.766;15.338;2023-03-31T08:23:34;35.83;;;21.10;;
47635;SDS011;33364;50.766;15.338;2023-03-31T08:26:07;30.83;;;20.50;;
47635;SDS011;33364;50.766;15.338;2023-03-31T08:28:34;36.30;;;21.63;;
47635;SDS011;33364;50.766;15.338;2023-03-31T08:31:04;29.98;;;19.90;;
47635;SDS011;33364;50.766;15.338;2023-03-31T08:33:32;28.92;;;16.92;;
47635;SDS011;33364;50.766;15.338;2023-03-31T08:36:01;30.10;;;22.42;;
47635;SDS011;33364;50.766;15.338;2023-03-31T08:38:28;23.75;;;16.20;;
47635;SDS011;33364;50.766;15.338;2023-03-31T08:41:00;31.25;;;19.48;;
47635;SDS011;33364;50.766;15.338;2023-03-31T08:43:29;25.63;;;18.45;;
47635;SDS011;33364;50.766;15.338;2023-03-31T08:45:59;23.90;;;16.05;;
47635;SDS011;33364;50.766;15.338;2023-03-31T08:51:45;23.30;;;17.55;;
47635;SDS011;33364;50.766;15.338;2023-03-31T08:54:00;35.42;;;18.48;;
47635;SDS011;33364;50.766;15.338;2023-03-31T08:56:33;35.42;;;18.83;;
47635;SDS011;33364;50.766;15.338;2023-03-31T08:59:05;47.13;;;29.60;;
47635;SDS011;33364;50.766;15.338;2023-03-31T09:07:04;30.60;;;20.88;;
47635;SDS011;33364;50.766;15.338;2023-03-31T09:15:28;28.88;;;19.58;;
47635;SDS011;33364;50.766;15.338;2023-03-31T09:18:06;26.98;;;18.45;;
47635;SDS011;33364;50.766;15.338;2023-03-31T09:20:42;41.10;;;30.90;;
47635;SDS011;33364;50.766;15.338;2023-03-31T09:23:18;24.40;;;16.48;;
47635;SDS011;33364;50.766;15.338;2023-03-31T09:25:51;37.60;;;22.90;;
47635;SDS011;33364;50.766;15.338;2023-03-31T09:28:19;64.22;;;35.05;;
47635;SDS011;33364;50.766;15.338;2023-03-31T09:30:47;23.77;;;14.27;;
47635;SDS011;33364;50.766;15.338;2023-03-31T09:33:17;62.40;;;40.33;;
47635;SDS011;33364;50.766;15.338;2023-03-31T09:35:57;34.00;;;20.50;;
47635;SDS011;33364;50.766;15.338;2023-03-31T09:38:26;28.13;;;16.73;;
47635;SDS011;33364;50.766;15.338;2023-03-31T09:40:55;25.30;;;12.65;;
47635;SDS011;33364;50.766;15.338;2023-03-31T09:43:23;19.83;;;12.45;;
47635;SDS011;33364;50.766;15.338;2023-03-31T09:45:51;20.58;;;10.07;;
47635;SDS011;33364;50.766;15.338;2023-03-31T09:48:19;19.55;;;10.57;;
47635;SDS011;33364;50.766;15.338;2023-03-31T09:50:49;24.38;;;13.45;;
47635;SDS011;33364;50.766;15.338;2023-03-31T09:53:38;16.80;;;8.68;;
47635;SDS011;33364;50.766;15.338;2023-03-31T09:56:08;20.60;;;13.27;;
47635;SDS011;33364;50.766;15.338;2023-03-31T09:58:42;20.70;;;14.30;;
47635;SDS011;33364;50.766;15.338;2023-03-31T10:01:11;19.85;;;9.75;;
47635;SDS011;33364;50.766;15.338;2023-03-31T10:03:51;27.17;;;12.50;;
47635;SDS011;33364;50.766;15.338;2023-03-31T10:06:19;18.58;;;9.98;;
47635;SDS011;33364;50.766;15.338;2023-03-31T10:08:51;27.08;;;15.65;;
47635;SDS011;33364;50.766;15.338;2023-03-31T10:11:21;21.93;;;12.37;;
47635;SDS011;33364;50.766;15.338;2023-03-31T10:13:58;22.00;;;12.27;;
47635;SDS011;33364;50.766;15.338;2023-03-31T10:16:47;31.60;;;18.98;;
47635;SDS011;33364;50.766;15.338;2023-03-31T10:19:21;13.50;;;8.77;;
47635;SDS011;33364;50.766;15.338;2023-03-31T10:21:57;18.27;;;9.68;;
47635;SDS011;33364;50.766;15.338;2023-03-31T10:24:25;16.90;;;10.00;;
47635;SDS011;33364;50.766;15.338;2023-03-31T10:27:03;16.05;;;8.85;;
47635;SDS011;33364;50.766;15.338;2023-03-31T10:29:31;14.23;;;9.82;;
47635;SDS011;33364;50.766;15.338;2023-03-31T10:32:02;18.17;;;12.25;;
47635;SDS011;33364;50.766;15.338;2023-03-31T10:34:33;116.43;;;60.08;;
47635;SDS011;33364;50.766;15.338;2023-03-31T10:37:06;39.22;;;24.00;;
47635;SDS011;33364;50.766;15.338;2023-03-31T10:39:34;18.67;;;12.52;;
47635;SDS011;33364;50.766;15.338;2023-03-31T10:42:01;24.77;;;13.15;;
47635;SDS011;33364;50.766;15.338;2023-03-31T10:44:33;20.20;;;13.77;;
47635;SDS011;33364;50.766;15.338;2023-03-31T10:49:35;23.60;;;11.55;;
47635;SDS011;33364;50.766;15.338;2023-03-31T10:52:02;21.83;;;14.20;;
47635;SDS011;33364;50.766;15.338;2023-03-31T10:54:28;40.42;;;20.98;;
47635;SDS011;33364;50.766;15.338;2023-03-31T10:56:55;37.85;;;20.10;;
47635;SDS011;33364;50.766;15.338;2023-03-31T11:08:43;36.88;;;18.38;;
47635;SDS011;33364;50.766;15.338;2023-03-31T11:11:18;34.08;;;17.33;;
47635;SDS011;33364;50.766;15.338;2023-03-31T11:14:00;32.10;;;18.27;;
47635;SDS011;33364;50.766;15.338;2023-03-31T11:22:14;19.45;;;11.05;;
47635;SDS011;33364;50.766;15.338;2023-03-31T11:25:12;15.70;;;10.43;;
47635;SDS011;33364;50.766;15.338;2023-03-31T11:30:36;16.38;;;8.55;;
47635;SDS011;33364;50.766;15.338;2023-03-31T11:41:07;15.60;;;11.48;;
47635;SDS011;33364;50.766;15.338;2023-03-31T11:46:19;27.05;;;17.67;;
47635;SDS011;33364;50.766;15.338;2023-03-31T11:51:30;34.33;;;23.55;;
47635;SDS011;33364;50.766;15.338;2023-03-31T11:54:24;37.72;;;23.70;;
47635;SDS011;33364;50.766;15.338;2023-03-31T11:56:56;18.17;;;9.68;;
47635;SDS011;33364;50.766;15.338;2023-03-31T11:59:25;13.40;;;9.20;;
47635;SDS011;33364;50.766;15.338;2023-03-31T12:02:01;15.10;;;9.02;;
47635;SDS011;33364;50.766;15.338;2023-03-31T12:04:48;17.08;;;10.30;;
47635;SDS011;33364;50.766;15.338;2023-03-31T12:07:21;38.13;;;20.80;;
47635;SDS011;33364;50.766;15.338;2023-03-31T12:10:02;32.03;;;15.00;;
47635;SDS011;33364;50.766;15.338;2023-03-31T12:12:43;15.23;;;9.38;;
47635;SDS011;33364;50.766;15.338;2023-03-31T12:17:46;23.05;;;11.38;;
47635;SDS011;33364;50.766;15.338;2023-03-31T12:20:27;18.42;;;10.27;;
47635;SDS011;33364;50.766;15.338;2023-03-31T12:22:58;13.25;;;7.32;;
47635;SDS011;33364;50.766;15.338;2023-03-31T12:25:25;21.83;;;11.90;;
47635;SDS011;33364;50.766;15.338;2023-03-31T12:28:07;21.23;;;9.13;;
47635;SDS011;33364;50.766;15.338;2023-03-31T12:30:35;23.63;;;12.27;;
47635;SDS011;33364;50.766;15.338;2023-03-31T12:38:32;14.75;;;8.88;;
47635;SDS011;33364;50.766;15.338;2023-03-31T12:52:03;28.48;;;13.57;;
47635;SDS011;33364;50.766;15.338;2023-03-31T12:57:34;19.15;;;7.05;;
47635;SDS011;33364;50.766;15.338;2023-03-31T13:02:37;11.43;;;6.67;;
47635;SDS011;33364;50.766;15.338;2023-03-31T13:08:03;10.75;;;5.15;;
47635;SDS011;33364;50.766;15.338;2023-03-31T13:10:30;11.07;;;4.85;;
47635;SDS011;33364;50.766;15.338;2023-03-31T13:12:59;8.88;;;5.45;;
47635;SDS011;33364;50.766;15.338;2023-03-31T13:15:30;8.85;;;4.60;;
47635;SDS011;33364;50.766;15.338;2023-03-31T13:18:01;11.52;;;4.90;;
47635;SDS011;33364;50.766;15.338;2023-03-31T13:20:30;8.02;;;4.07;;
47635;SDS011;33364;50.766;15.338;2023-03-31T13:23:02;101.95;;;51.97;;
47635;SDS011;33364;50.766;15.338;2023-03-31T13:25:42;51.17;;;27.38;;
47635;SDS011;33364;50.766;15.338;2023-03-31T13:28:09;20.35;;;12.65;;
47635;SDS011;33364;50.766;15.338;2023-03-31T13:33:35;10.20;;;7.20;;
47635;SDS011;33364;50.766;15.338;2023-03-31T13:42:16;10.68;;;6.65;;
47635;SDS011;33364;50.766;15.338;2023-03-31T13:50:26;29.50;;;13.85;;
47635;SDS011;33364;50.766;15.338;2023-03-31T13:53:22;14.57;;;8.10;;
47635;SDS011;33364;50.766;15.338;2023-03-31T13:56:16;13.73;;;9.40;;
47635;SDS011;33364;50.766;15.338;2023-03-31T14:08:10;15.80;;;7.18;;
47635;SDS011;33364;50.766;15.338;2023-03-31T14:13:41;27.52;;;11.02;;
47635;SDS011;33364;50.766;15.338;2023-03-31T14:16:07;19.73;;;9.48;;
47635;SDS011;33364;50.766;15.338;2023-03-31T14:18:34;24.48;;;11.13;;
47635;SDS011;33364;50.766;15.338;2023-03-31T14:21:17;24.42;;;11.20;;
47635;SDS011;33364;50.766;15.338;2023-03-31T14:29:30;22.33;;;11.48;;
47635;SDS011;33364;50.766;15.338;2023-03-31T14:34:55;12.38;;;8.07;;
47635;SDS011;33364;50.766;15.338;2023-03-31T14:37:48;11.02;;;7.25;;
47635;SDS011;33364;50.766;15.338;2023-03-31T14:40:15;16.35;;;7.90;;
47635;SDS011;33364;50.766;15.338;2023-03-31T14:42:43;14.38;;;7.18;;
47635;SDS011;33364;50.766;15.338;2023-03-31T14:47:54;16.05;;;6.63;;
47635;SDS011;33364;50.766;15.338;2023-03-31T14:50:40;11.52;;;7.25;;
47635;SDS011;33364;50.766;15.338;2023-03-31T14:53:21;21.10;;;12.40;;
47635;SDS011;33364;50.766;15.338;2023-03-31T14:55:48;14.65;;;9.02;;
47635;SDS011;33364;50.766;15.338;2023-03-31T14:58:23;16.77;;;9.20;;
47635;SDS011;33364;50.766;15.338;2023-03-31T15:00:51;18.98;;;10.23;;
47635;SDS011;33364;50.766;15.338;2023-03-31T15:03:18;16.73;;;7.05;;
47635;SDS011;33364;50.766;15.338;2023-03-31T15:05:44;17.40;;;9.00;;
47635;SDS011;33364;50.766;15.338;2023-03-31T15:08:13;17.52;;;8.98;;
47635;SDS011;33364;50.766;15.338;2023-03-31T15:10:42;19.25;;;9.43;;
47635;SDS011;33364;50.766;15.338;2023-03-31T15:13:13;17.88;;;8.95;;
47635;SDS011;33364;50.766;15.338;2023-03-31T15:15:43;12.10;;;7.47;;
47635;SDS011;33364;50.766;15.338;2023-03-31T15:18:11;18.25;;;11.43;;
47635;SDS011;33364;50.766;15.338;2023-03-31T15:20:39;15.52;;;8.95;;
47635;SDS011;33364;50.766;15.338;2023-03-31T15:23:22;9.82;;;5.85;;
47635;SDS011;33364;50.766;15.338;2023-03-31T15:26:11;5.10;;;3.03;;
47635;SDS011;33364;50.766;15.338;2023-03-31T15:28:38;8.48;;;4.88;;
47635;SDS011;33364;50.766;15.338;2023-03-31T15:31:14;5.95;;;3.80;;
47635;SDS011;33364;50.766;15.338;2023-03-31T15:33:40;9.60;;;4.78;;
47635;SDS011;33364;50.766;15.338;2023-03-31T15:36:07;9.38;;;4.63;;
47635;SDS011;33364;50.766;15.338;2023-03-31T15:38:35;9.25;;;4.70;;
47635;SDS011;33364;50.766;15.338;2023-03-31T15:41:01;5.95;;;3.75;;
47635;SDS011;33364;50.766;15.338;2023-03-31T15:43:32;5.13;;;3.30;;
47635;SDS011;33364;50.766;15.338;2023-03-31T15:46:10;5.82;;;3.75;;
47635;SDS011;33364;50.766;15.338;2023-03-31T15:48:52;9.45;;;4.70;;
47635;SDS011;33364;50.766;15.338;2023-03-31T15:51:23;11.70;;;8.15;;
47635;SDS011;33364;50.766;15.338;2023-03-31T15:53:53;12.00;;;6.55;;
47635;SDS011;33364;50.766;15.338;2023-03-31T15:56:36;14.02;;;7.80;;
47635;SDS011;33364;50.766;15.338;2023-03-31T15:59:22;5.50;;;3.50;;
47635;SDS011;33364;50.766;15.338;2023-03-31T16:01:49;4.47;;;2.10;;
47635;SDS011;33364;50.766;15.338;2023-03-31T16:04:19;4.72;;;3.13;;
47635;SDS011;33364;50.766;15.338;2023-03-31T16:09:22;10.60;;;7.45;;
47635;SDS011;33364;50.766;15.338;2023-03-31T16:12:01;7.28;;;5.78;;
47635;SDS011;33364;50.766;15.338;2023-03-31T16:14:31;12.60;;;7.88;;
47635;SDS011;33364;50.766;15.338;2023-03-31T16:17:04;10.57;;;5.43;;
47635;SDS011;33364;50.766;15.338;2023-03-31T16:19:40;7.65;;;4.50;;
47635;SDS011;33364;50.766;15.338;2023-03-31T16:22:12;10.60;;;6.18;;
47635;SDS011;33364;50.766;15.338;2023-03-31T16:24:43;8.27;;;5.80;;
47635;SDS011;33364;50.766;15.338;2023-03-31T16:27:09;7.70;;;5.03;;
47635;SDS011;33364;50.766;15.338;2023-03-31T16:29:36;11.35;;;6.28;;
47635;SDS011;33364;50.766;15.338;2023-03-31T16:32:05;7.13;;;4.03;;
47635;SDS011;33364;50.766;15.338;2023-03-31T16:34:55;7.05;;;4.43;;
47635;SDS011;33364;50.766;15.338;2023-03-31T16:37:25;7.85;;;4.10;;
47635;SDS011;33364;50.766;15.338;2023-03-31T16:39:52;6.63;;;3.72;;
47635;SDS011;33364;50.766;15.338;2023-03-31T16:42:18;7.88;;;4.32;;
47635;SDS011;33364;50.766;15.338;2023-03-31T16:44:44;8.60;;;5.30;;
47635;SDS011;33364;50.766;15.338;2023-03-31T16:47:13;13.32;;;8.32;;
47635;SDS011;33364;50.766;15.338;2023-03-31T16:49:40;20.00;;;12.10;;
47635;SDS011;33364;50.766;15.338;2023-03-31T16:52:06;19.05;;;12.38;;
47635;SDS011;33364;50.766;15.338;2023-03-31T16:54:34;24.90;;;16.65;;
47635;SDS011;33364;50.766;15.338;2023-03-31T16:56:59;40.28;;;24.02;;
47635;SDS011;33364;50.766;15.338;2023-03-31T16:59:25;14.45;;;8.68;;
47635;SDS011;33364;50.766;15.338;2023-03-31T17:01:51;13.82;;;8.48;;
47635;SDS011;33364;50.766;15.338;2023-03-31T17:04:17;25.15;;;14.48;;
47635;SDS011;33364;50.766;15.338;2023-03-31T17:06:43;11.15;;;6.85;;
47635;SDS011;33364;50.766;15.338;2023-03-31T17:09:10;13.00;;;6.80;;
47635;SDS011;33364;50.766;15.338;2023-03-31T17:11:35;14.25;;;7.45;;
47635;SDS011;33364;50.766;15.338;2023-03-31T17:14:01;16.02;;;10.57;;
47635;SDS011;33364;50.766;15.338;2023-03-31T17:16:29;19.00;;;13.73;;
47635;SDS011;33364;50.766;15.338;2023-03-31T17:18:56;15.68;;;10.65;;